createdAt,value
2018-07-16T00:00:12.115Z,99584.95
2018-07-16T00:05:16.853Z,99573.70
2018-07-16T00:15:39.945Z,99584.57
2018-07-16T00:20:44.644Z,99582.59
2018-07-16T00:25:49.381Z,99589.30
2018-07-16T00:30:54.089Z,99584.22
2018-07-16T00:35:58.717Z,99584.63
2018-07-16T00:41:03.446Z,99583.51
2018-07-16T00:46:08.109Z,99587.99
2018-07-16T00:51:12.797Z,99580.76
2018-07-16T00:56:17.462Z,99578.59
2018-07-16T01:01:22.092Z,99579.08
2018-07-16T01:06:27.376Z,99576.04
2018-07-16T01:11:32.124Z,99582.48
2018-07-16T01:16:36.749Z,99584.14
2018-07-16T01:21:41.451Z,99574.41
2018-07-16T01:26:46.226Z,99578.55
2018-07-16T01:31:51.022Z,99577.91
2018-07-16T01:36:55.424Z,99587.99
2018-07-16T01:42:00.128Z,99586.09
2018-07-16T01:47:04.780Z,99585.66
2018-07-16T01:52:09.381Z,99585.24
2018-07-16T01:57:14.063Z,99585.18
2018-07-16T02:02:18.749Z,99581.19
2018-07-16T02:07:23.488Z,99573.74
2018-07-16T02:12:28.419Z,99579.32
2018-07-16T02:17:33.162Z,99578.58
2018-07-16T02:22:38.069Z,99576.86
2018-07-16T02:27:42.724Z,99578.38
2018-07-16T02:32:47.404Z,99576.98
2018-07-16T02:37:52.177Z,99572.49
2018-07-16T02:42:56.992Z,99571.68
2018-07-16T02:48:01.667Z,99569.07
2018-07-16T02:53:06.393Z,99565.20
2018-07-16T02:58:11.105Z,99568.04
2018-07-16T03:03:15.777Z,99566.68
2018-07-16T03:08:20.491Z,99569.86
2018-07-16T03:13:25.132Z,99570.48
2018-07-16T03:18:29.847Z,99571.68
2018-07-16T03:23:34.466Z,99572.19
2018-07-16T03:28:39.333Z,99563.96
2018-07-16T03:33:43.661Z,99560.83
2018-07-16T03:38:48.308Z,99562.42
2018-07-16T03:43:53.004Z,99568.47
2018-07-16T03:48:57.944Z,99560.81
2018-07-16T03:54:02.580Z,99566.90
2018-07-16T03:59:07.275Z,99560.69
2018-07-16T04:04:11.997Z,99556.72
2018-07-16T04:09:16.748Z,99556.06
2018-07-16T04:14:21.832Z,99558.48
2018-07-16T04:19:26.611Z,99554.80
2018-07-16T04:24:31.306Z,99558.61
2018-07-16T04:29:36.061Z,99568.73
2018-07-16T04:34:40.706Z,99569.48
2018-07-16T04:39:45.416Z,99562.20
2018-07-16T04:44:50.149Z,99569.94
2018-07-16T04:49:54.877Z,99575.74
2018-07-16T04:54:59.529Z,99576.86
2018-07-16T05:00:04.261Z,99579.23
2018-07-16T05:05:08.989Z,99579.29
2018-07-16T05:10:13.814Z,99576.02
2018-07-16T05:15:18.531Z,99577.72
2018-07-16T05:20:23.407Z,99589.22
2018-07-16T05:25:28.043Z,99577.41
2018-07-16T05:30:32.725Z,99576.48
2018-07-16T05:35:37.395Z,99573.02
2018-07-16T05:40:43.138Z,99583.30
2018-07-16T05:45:47.932Z,99575.66
2018-07-16T05:50:52.632Z,99585.84
2018-07-16T05:55:57.397Z,99592.60
2018-07-16T06:01:02.028Z,99597.09
2018-07-16T06:06:06.835Z,99601.38
2018-07-16T06:11:11.573Z,99599.82
2018-07-16T06:16:16.230Z,99593.02
2018-07-16T06:21:20.897Z,99594.49
2018-07-16T06:26:25.588Z,99590.98
2018-07-16T06:31:30.282Z,99589.70
2018-07-16T06:36:34.969Z,99581.87
2018-07-16T06:41:39.577Z,99580.33
2018-07-16T06:46:44.172Z,99580.06
2018-07-16T06:51:48.521Z,99577.31
2018-07-16T06:56:52.854Z,99573.48
2018-07-16T07:01:57.805Z,99572.92
2018-07-16T07:07:02.538Z,99571.03
2018-07-16T07:12:06.936Z,99567.73
2018-07-16T07:17:11.579Z,99563.34
2018-07-16T07:22:16.214Z,99561.83
2018-07-16T07:27:20.944Z,99558.62
2018-07-16T07:32:25.650Z,99553.80
2018-07-16T07:37:30.513Z,99547.47
2018-07-16T07:42:35.226Z,99548.02
2018-07-16T07:47:39.991Z,99542.31
2018-07-16T07:52:44.376Z,99538.45
2018-07-16T07:57:49.079Z,99541.66
2018-07-16T08:02:53.855Z,99539.46
2018-07-16T08:07:58.580Z,99535.98
2018-07-16T08:13:03.421Z,99530.94
2018-07-16T08:18:08.069Z,99529.11
2018-07-16T08:23:12.758Z,99528.28
2018-07-16T08:28:17.673Z,99537.09
2018-07-16T08:33:22.327Z,99538.20
2018-07-16T08:38:27.049Z,99544.71
2018-07-16T08:43:31.708Z,99539.03
2018-07-16T08:48:36.364Z,99537.89
2018-07-16T08:53:41.027Z,99534.48
2018-07-16T08:58:45.685Z,99541.38
2018-07-16T09:03:50.371Z,99540.16
2018-07-16T09:08:55.191Z,99535.91
2018-07-16T09:13:59.901Z,99543.66
2018-07-16T09:19:04.644Z,99538.77
2018-07-16T09:24:09.329Z,99538.88
2018-07-16T09:29:14.073Z,99532.02
2018-07-16T09:34:18.657Z,99527.17
2018-07-16T09:39:23.289Z,99520.31
2018-07-16T09:44:27.981Z,99514.23
2018-07-16T09:49:32.723Z,99511.86
2018-07-16T09:54:37.830Z,99506.64
2018-07-16T09:59:42.496Z,99498.07
2018-07-16T10:04:47.680Z,99488.82
2018-07-16T10:09:52.335Z,99482.47
2018-07-16T10:14:56.965Z,99480.88
2018-07-16T10:20:01.540Z,99477.36
2018-07-16T10:25:06.266Z,99470.95
2018-07-16T10:30:11.028Z,99472.59
2018-07-16T10:35:15.870Z,99461.28
2018-07-16T10:40:20.500Z,99456.47
2018-07-16T10:45:25.285Z,99449.98
2018-07-16T10:50:29.877Z,99453.63
2018-07-16T10:55:34.605Z,99449.16
2018-07-16T11:00:39.279Z,99443.59
2018-07-16T11:05:43.931Z,99450.46
2018-07-16T11:10:48.806Z,99447.50
2018-07-16T11:15:53.535Z,99445.00
2018-07-16T11:20:58.366Z,99441.39
2018-07-16T11:26:02.913Z,99431.64
2018-07-16T11:31:07.795Z,99435.34
2018-07-16T11:36:12.605Z,99427.36
2018-07-16T11:41:17.267Z,99419.95
2018-07-16T11:46:22.004Z,99409.97
2018-07-16T11:51:26.881Z,99413.16
2018-07-16T11:56:31.550Z,99401.09
2018-07-16T12:01:36.347Z,99393.88
2018-07-16T12:06:41.071Z,99382.78
2018-07-16T12:11:45.688Z,99382.34
2018-07-16T12:16:50.559Z,99366.52
2018-07-16T12:21:55.631Z,99361.02
2018-07-16T12:32:06.220Z,99354.31
2018-07-16T12:37:10.874Z,99351.06
2018-07-16T12:42:15.500Z,99346.19
2018-07-16T12:47:20.227Z,99333.49
2018-07-16T12:52:24.830Z,99324.73
2018-07-16T12:57:29.525Z,99310.46
2018-07-16T13:02:34.243Z,99305.23
2018-07-16T13:07:39.030Z,99299.41
2018-07-16T13:12:43.686Z,99294.16
2018-07-16T13:17:50.025Z,99288.66
2018-07-16T13:22:54.789Z,99276.33
2018-07-16T13:27:59.110Z,99279.68
2018-07-16T13:33:03.732Z,99281.34
2018-07-16T13:38:08.510Z,99276.58
2018-07-16T13:43:13.199Z,99268.70
2018-07-16T13:48:18.028Z,99269.04
2018-07-16T13:53:22.994Z,99259.47
2018-07-16T13:58:27.839Z,99257.42
2018-07-16T14:03:32.574Z,99249.11
2018-07-16T14:08:37.268Z,99254.70
2018-07-16T14:13:41.936Z,99248.25
2018-07-16T14:18:46.664Z,99243.47
2018-07-16T14:23:51.320Z,99244.13
2018-07-16T14:28:56.081Z,99242.09
2018-07-16T14:34:01.128Z,99248.38
2018-07-16T14:39:07.075Z,99230.39
2018-07-16T14:44:11.936Z,99232.13
2018-07-16T14:49:16.704Z,99225.18
2018-07-16T14:54:21.369Z,99222.20
2018-07-16T14:59:26.090Z,99221.70
2018-07-16T15:04:30.763Z,99215.98
2018-07-16T15:09:35.429Z,99222.59
2018-07-16T15:14:40.216Z,99220.83
2018-07-16T15:19:44.901Z,99229.14
2018-07-16T15:24:49.594Z,99237.83
2018-07-16T15:29:54.280Z,99245.61
2018-07-16T15:34:58.939Z,99251.70
2018-07-16T15:40:03.644Z,99248.51
2018-07-16T15:45:08.442Z,99248.39
2018-07-16T15:50:13.308Z,99243.83
2018-07-16T15:55:18.017Z,99249.24
2018-07-16T16:00:22.745Z,99252.18
2018-07-16T16:05:27.392Z,99250.09
2018-07-16T16:10:31.992Z,99249.09
2018-07-16T16:15:36.680Z,99275.52
2018-07-16T16:20:41.412Z,99276.96
2018-07-16T16:25:46.205Z,99269.96
2018-07-16T16:30:51.024Z,99260.80
2018-07-16T16:35:55.734Z,99259.33
2018-07-16T16:41:00.771Z,99250.84
2018-07-16T16:46:08.956Z,99247.30
2018-07-16T16:51:14.338Z,99245.00
2018-07-16T16:56:18.688Z,99255.61
2018-07-16T17:01:23.599Z,99252.73
2018-07-16T17:06:28.479Z,99250.41
2018-07-16T17:11:33.103Z,99250.34
2018-07-16T17:16:37.844Z,99243.05
2018-07-16T17:21:42.905Z,99252.37
2018-07-16T17:26:47.608Z,99259.28
2018-07-16T17:31:52.316Z,99254.66
2018-07-16T17:36:57.027Z,99254.21
2018-07-16T17:42:01.892Z,99248.92
2018-07-16T17:47:06.696Z,99257.03
2018-07-16T17:52:11.405Z,99260.16
2018-07-16T17:57:16.157Z,99251.32
2018-07-16T18:02:20.932Z,99240.84
2018-07-16T18:07:25.687Z,99246.98
2018-07-16T18:12:30.380Z,99244.58
2018-07-16T18:17:35.482Z,99243.05
2018-07-16T18:22:40.221Z,99246.81
2018-07-16T18:27:44.953Z,99242.27
2018-07-16T18:32:49.870Z,99241.40
2018-07-16T18:37:54.646Z,99242.42
2018-07-16T18:42:59.567Z,99250.58
2018-07-16T18:48:04.338Z,99259.25
2018-07-16T18:53:09.289Z,99260.67
2018-07-16T18:58:14.009Z,99255.22
2018-07-16T19:03:18.700Z,99261.09
2018-07-16T19:08:23.452Z,99269.62
2018-07-16T19:13:28.188Z,99275.78
2018-07-16T19:18:32.829Z,99277.86
2018-07-16T19:23:37.661Z,99290.77
2018-07-16T19:28:43.300Z,99292.35
2018-07-16T19:33:48.086Z,99293.87
2018-07-16T19:38:52.972Z,99304.08
2018-07-16T19:43:57.818Z,99309.14
2018-07-16T19:49:02.568Z,99310.20
2018-07-16T19:54:08.298Z,99318.48
2018-07-16T19:59:13.070Z,99324.13
2018-07-16T20:04:17.952Z,99330.90
2018-07-16T20:09:22.630Z,99327.22
2018-07-16T20:14:30.980Z,99328.91
2018-07-16T20:19:36.832Z,99336.90
2018-07-16T20:24:41.531Z,99343.02
2018-07-16T20:29:46.227Z,99348.02
2018-07-16T20:34:50.951Z,99350.19
2018-07-16T20:39:55.834Z,99361.45
2018-07-16T20:45:00.576Z,99361.19
2018-07-16T20:50:05.795Z,99366.13
2018-07-16T20:55:10.644Z,99367.45
2018-07-16T21:00:15.285Z,99377.84
2018-07-16T21:05:19.969Z,99389.30
2018-07-16T21:10:24.668Z,99388.45
2018-07-16T21:15:29.380Z,99392.23
2018-07-16T21:20:34.109Z,99398.73
2018-07-16T21:25:38.871Z,99404.80
2018-07-16T21:30:43.604Z,99413.52
2018-07-16T21:35:49.363Z,99413.71
2018-07-16T21:40:54.120Z,99409.09
2018-07-16T21:45:58.801Z,99414.77
2018-07-16T21:51:03.469Z,99416.94
2018-07-16T21:56:08.236Z,99430.19
2018-07-16T22:01:12.954Z,99432.56
2018-07-16T22:06:17.684Z,99441.37
2018-07-16T22:11:22.500Z,99439.34
2018-07-16T22:16:27.281Z,99436.77
2018-07-16T22:21:32.066Z,99444.05
2018-07-16T22:26:36.683Z,99435.36
2018-07-16T22:31:41.405Z,99432.06
2018-07-16T22:36:46.121Z,99435.70
2018-07-16T22:41:50.797Z,99438.48
2018-07-16T22:46:55.467Z,99440.55
2018-07-16T22:52:00.137Z,99441.28
2018-07-16T22:57:04.826Z,99448.89
2018-07-16T23:02:09.945Z,99443.28
2018-07-16T23:07:14.702Z,99439.50
2018-07-16T23:12:19.435Z,99447.73
2018-07-16T23:17:24.078Z,99443.60
2018-07-16T23:22:28.844Z,99446.95
2018-07-16T23:27:33.516Z,99447.72
2018-07-16T23:32:38.151Z,99450.16
2018-07-16T23:37:42.834Z,99449.05
2018-07-16T23:42:47.494Z,99456.21
2018-07-16T23:47:52.129Z,99461.77
2018-07-16T23:52:56.804Z,99454.25
2018-07-16T23:58:01.418Z,99452.20
